Weather observations for the past three days for
Illinois Valley Regional Airport
Metric (Imperial)
Date Time (cdt) Wind (kph) Vis. (km) Weather Sky Cond. Temperature (ºC) Relative Humidity Wind Chill (°C) Heat Index (°C) Pressure Precipitation (cm)
Air Dwpt 6 hour altimeter (cm) sea level (mb) 1 hr 3 hr 6 hr
Max. Min.
22 08:15 SW 22 G 30 16.09 Fair CLR 27.7 21.1 67% 30 76.12 0.0
22 07:55 S 15 16.09 Fair CLR 26.6 21.1 72% 28 76.12 0.0
22 07:35 S 13 16.09 Fair CLR 25.5 20.6 74% 27 76.15 0.0
22 07:15 S 11 16.09 Fair CLR 25.2 20.2 74% 26 76.15 0.0
22 06:55 S 9 16.09 Fair CLR 24.4 19.9 76% 25 76.17 0.0
22 06:35 S 11 16.09 Partly Cloudy SCT095 23.7 19.5 77% 76.17 0.0
22 06:15 S 13 16.09 Mostly Cloudy BKN095 23.8 19.5 77% 76.17 0.0
22 05:55 S 11 16.09 Overcast OVC095 24 19.5 76% 25 76.17 0.0
22 05:35 S 11 16.09 Overcast OVC095 23.8 19.7 78% 76.17 0.0
22 05:15 S 11 16.09 Overcast OVC095 24.1 19.8 77% 25 76.2 0.0
22 04:55 S 11 16.09 Overcast OVC095 24.4 20.1 77% 25 76.2 0.0
22 04:35 S 11 16.09 Overcast OVC095 24.1 20 78% 25 76.2 0.0
22 04:15 S 11 16.09 Mostly Cloudy BKN095 23.8 20 79% 76.2 0.0
22 03:55 S 9 16.09 Partly Cloudy SCT095 24.5 20 76% 25 76.23 0.0
22 03:35 SW 13 16.09 Fair CLR 24.8 20 75% 26 76.23 0.0
22 03:15 S 9 16.09 Fair CLR 24.8 20 75% 26 76.25 0.0
22 02:55 SW 11 16.09 Fair CLR 25.5 19.8 71% 27 76.25 0.0
22 02:35 SW 11 16.09 Fair CLR 25.6 19.8 70% 27 76.25 0.0
22 02:15 SW 11 16.09 Fair CLR 25.5 20 72% 27 76.28 0.0
22 01:55 SW 7 16.09 Fair CLR 24.5 20.5 78% 25 76.28 0.0
22 01:35 S 9 16.09 Fair CLR 24.6 20.3 77% 25 76.28 0.0
22 01:15 S 9 16.09 Fair CLR 24.9 20.5 77% 26 76.3 0.0
22 00:55 S 7 16.09 Partly Cloudy SCT080 25.5 20.4 73% 27 76.3 0.0
22 00:35 S 11 16.09 Overcast OVC080 26.1 20.5 71% 27 76.3 0.0
22 00:15 S 13 16.09 Overcast OVC080 26.7 20.3 68% 28 76.33 0.0
21 23:55 S 11 16.09 Overcast OVC080 27 20.5 68% 29 76.3 0.0
21 23:35 S 11 16.09 Overcast SCT050 OVC090 27 20.4 67% 29 76.3 0.0
21 23:15 S 9 16.09 Overcast OVC090 26.6 20.7 70% 28 76.33 0.0
21 22:55 S 9 16.09 Overcast OVC090 26.7 20.8 70% 28 76.33 0.0
21 22:35 S 9 16.09 Partly Cloudy SCT090 26.3 20.9 72% 28 76.33 0.0
21 22:15 S 11 16.09 Fair CLR 26.4 20.8 71% 28 76.33 0.0
21 21:55 S 11 16.09 Partly Cloudy SCT095 26.5 21 72% 28 76.33 0.0
21 21:35 S 11 16.09 Mostly Cloudy BKN095 26.6 21.3 73% 28 76.33 0.0
21 21:15 S 11 16.09 Partly Cloudy SCT095 26.5 21.3 73% 28 76.33 0.0
21 20:55 S 9 16.09 Fair CLR 26.9 21.2 71% 29 76.33 0.0
21 20:35 S 9 16.09 Fair CLR 27.3 21.5 71% 29 76.33 0.0
21 20:15 SW 9 16.09 Fair CLR 28.2 21.1 65% 30 76.33 0.0
21 19:55 S 9 16.09 Fair CLR 29.4 20.6 59% 32 76.35 0.0
21 19:35 SW 9 16.09 Partly Cloudy SCT070 29.8 20.6 58% 32 76.38 0.0
21 19:15 SW 13 16.09 Partly Cloudy SCT055 SCT070 30.5 19.9 53% 32 76.38 0.0
21 18:55 SW 15 16.09 Partly Cloudy SCT055 30.5 20.6 55% 33 76.35 0.0
21 18:35 SW 13 16.09 Fair CLR 31 20.3 53% 33 76.35 0.0
21 18:15 SW 15 16.09 Fair CLR 31.2 20.1 52% 33 76.38 0.0
21 17:55 SW 15 16.09 Fair CLR 31.5 20.2 51% 34 76.38 0.0
21 17:35 SW 17 16.09 Fair CLR 31.5 20 50% 34 76.38 0.0
21 17:15 SW 17 16.09 Partly Cloudy SCT055 31.6 20.3 51% 34 76.4 0.0
21 16:55 S 17 16.09 Partly Cloudy SCT055 31.8 20.4 51% 34 76.4 0.0
21 16:35 S 15 16.09 Fair CLR 31.7 19.9 50% 34 76.43 0.0
21 16:15 SW 20 16.09 Partly Cloudy SCT050 31.8 20.2 50% 34 76.45 0.0
21 15:55 SW 19 16.09 Partly Cloudy SCT055 31.6 20.3 51% 34 76.45 0.0
21 15:35 S 13 16.09 Partly Cloudy SCT055 31.7 20.3 51% 34 76.48 0.0
21 15:15 SW 11 16.09 Partly Cloudy SCT055 31.5 20.4 52% 34 76.5 0.0
21 14:55 SW 13 16.09 Fair CLR 31.5 19.8 50% 33 76.5 0.0
21 14:35 SW 9 16.09 Fair CLR 31.6 19.7 49% 33 76.53 0.0
21 14:15 SW 15 16.09 Fair CLR 31.5 19.5 49% 33 76.56 0.0
21 13:55 SW 15 16.09 Fair CLR 31.6 19.7 49% 33 76.58 0.0
21 13:35 SW 9 16.09 Partly Cloudy SCT050 31.6 20.4 51% 34 76.58 0.0
21 13:15 SW 11 16.09 Partly Cloudy SCT050 31.2 20.8 54% 34 76.61 0.0
21 12:55 S 11 16.09 Fair CLR 31.3 20.4 52% 34 76.61 0.0
21 12:35 S 17 16.09 Partly Cloudy SCT048 31.2 21 55% 34 76.63 0.0
21 12:15 S 17 16.09 Partly Cloudy SCT048 31.4 20.7 53% 34 76.63 0.0
21 11:55 SW 15 16.09 Partly Cloudy SCT044 30.9 20.9 55% 34 76.66 0.0
21 11:35 S 17 16.09 Fair CLR 30.5 21.2 58% 33 76.68 0.0
21 11:15 SW 11 16.09 Fair CLR 30.1 21.9 62% 33 76.71 0.0
21 10:55 SW 11 16.09 Fair CLR 29.5 21.8 63% 33 76.71 0.0
21 10:35 SW 7 16.09 Fair CLR 29.2 22 65% 32 76.71 0.0
21 10:15 SW 7 16.09 Fair CLR 28.5 22.7 71% 32 76.73 0.0
21 09:55 SW 6 16.09 Fair CLR 28 22.9 74% 31 76.73 0.0
21 09:35 SW 9 16.09 Fair CLR 27.5 22.7 75% 30 76.73 0.0
21 09:15 SW 7 16.09 Fair CLR 26.6 22.2 77% 29 76.73 0.0
21 08:55 SW 7 16.09 Fair CLR 26 22.4 81% 28 76.76 0.0
21 08:35 S 6 11.27 Fair CLR 25.1 21.6 81% 26 76.76 0.0
21 08:15 Calm 11.27 Fair CLR 24 21.2 84% 24 76.78 0.0
21 07:55 Calm 8.05 Fog/Mist CLR 23.5 21 86% 76.78 0.0
21 07:35 S 6 8.05 Fog/Mist CLR 22.9 20.5 86% 76.78 0.0
21 07:15 Calm 8.05 Fog/Mist CLR 22.5 20.4 88% 76.78 0.0
21 06:55 Calm 4.83 Fog/Mist CLR 21.7 20.3 92% 76.78 0.0
21 06:35 Calm 4.83 Fog/Mist CLR 21.2 20.4 95% 76.78 0.0
21 06:15 S 6 2.41 Fog/Mist VV007 20.5 20.3 99% 76.78 0.0
21 05:55 S 6 1.21 Fog/Mist VV005 19.9 19.5 98% 76.78 0.0
21 05:35 Calm 1.21 Fog/Mist VV005 19.8 19.3 97% 76.78 0.0
21 05:15 SE 6 3.22 Fog/Mist CLR 20 19.5 97% 76.78 0.0
21 04:55 Calm 3.22 Fog/Mist CLR 20.1 19.5 96% 76.78 0.0
21 04:35 Calm 3.22 Fog/Mist CLR 20.3 19.6 96% 76.78 0.0
21 04:15 Calm 3.22 Fog/Mist CLR 20.5 19.8 96% 76.76 0.0
21 03:55 E 6 3.22 Fog/Mist CLR 20.7 20 96% 76.76 0.0
21 03:35 E 6 4.02 Fog/Mist CLR 20.8 20 95% 76.76 0.0
21 03:15 E 6 4.02 Fog/Mist CLR 21 20.1 95% 76.76 0.0
21 02:55 E 9 4.02 Fog/Mist CLR 21 20.2 95% 76.76 0.0
21 02:35 NE 7 4.02 Fog/Mist CLR 21.2 20.5 96% 76.78 0.0
21 02:15 NE 11 4.83 Fog/Mist CLR 21.4 20.5 95% 76.81 0.0
21 01:55 NE 6 4.83 Fog/Mist CLR 21.5 20.5 94% 76.81 0.0
21 01:35 E 6 6.44 Fog/Mist CLR 21.7 20.6 94% 76.81 0.0
21 01:15 E 7 6.44 Fog/Mist CLR 22 21 94% 76.81 0.0
21 00:55 E 9 6.44 Fog/Mist CLR 22.2 21.1 94% 76.81 0.0
21 00:35 E 11 6.44 Fog/Mist CLR 22.4 21.3 94% 76.81 0.0
21 00:15 NE 11 8.05 Fog/Mist CLR 22.8 21.7 94% 76.81 0.0
20 23:55 NE 6 11.27 Fair CLR 23 21.8 93% 76.81 0.0
20 23:35 E 7 16.09 Fair CLR 23.2 22 93% 76.81 0.0
20 23:15 NE 6 16.09 Fair CLR 23.1 22 94% 76.81 0.0
20 22:55 Calm 16.09 Partly Cloudy SCT075 23.2 22.1 94% 76.81 0.0
20 22:35 Calm 16.09 Mostly Cloudy BKN075 23.5 22.3 93% 76.81 0.0
20 22:15 E 7 16.09 Partly Cloudy SCT075 23.5 22.2 92% 76.81 0.0
20 21:55 E 6 16.09 Fair CLR 23.5 22.1 92% 76.84 0.0
20 21:35 E 9 16.09 Partly Cloudy SCT080 SCT110 23.6 22.2 92% 76.81 0.0
20 21:15 E 7 16.09 Mostly Cloudy SCT080 BKN110 23.8 22.5 92% 76.81 0.0
20 20:55 E 7 16.09 Overcast OVC100 24 22.7 92% 23 76.78 0.0
20 20:35 Calm 16.09 Overcast OVC090 24 22.5 91% 23 76.78 0.0
20 20:15 E 6 16.09 Partly Cloudy SCT090 24.1 22.7 92% 24 76.78 0.0
20 19:55 E 11 6.44 Light Rain SCT032 SCT050 BKN060 23.7 22.7 94% 76.76 0.0 0.28
20 19:35 N 7 4.83 Overcast SCT050 BKN090 OVC110 23.3 22.2 94% 76.78 0.0 0.15
20 19:15 N 9 16.09 Light Rain SCT070 BKN110 23.9 21.6 87% 24 76.78 0.0 0.03
20 18:55 W 9 8.05 Rain SCT060 SCT070 OVC100 23.6 21.7 89% 76.78 0.0 0.13
20 18:35 W 13 G 31 8.05 Thunderstorm Rain SCT043 BKN090 OVC110 23.9 22.2 90% 23 76.81 0.0 0.05
20 18:15 NW 13 16.09 Thunderstorm Light Rain in Vicinity SCT060 SCT075 OVC085 24.6 22.5 88% 25 76.81 0.0
20 17:55 NW 24 16.09 Thunderstorm Light Rain SCT047 BKN070 OVC090 25.2 22 83% 26 76.76 0.0
20 17:35 N 20 G 39 16.09 Mostly Cloudy SCT050 BKN080 BKN110 27.4 21.7 71% 30 76.73 0.0
20 17:15 SW 9 16.09 Partly Cloudy SCT085 SCT090 SCT120 30.5 21.4 58% 33 76.71 0.0
20 16:55 W 11 16.09 Partly Cloudy SCT085 SCT120 31.1 21.4 56% 34 76.73 0.0
20 16:35 SW 15 16.09 Thunderstorm in Vicinity SCT085 SCT120 32.3 21.4 53% 36 76.73 0.0
20 16:15 SW 6 16.09 Mostly Cloudy BKN085 BKN120 31.4 22.5 59% 35 76.73 0.0
20 15:55 SW 13 16.09 Mostly Cloudy BKN095 31 21.4 57% 34 76.76 0.0
20 15:35 W 11 16.09 Overcast SCT050 BKN095 OVC120 31.4 21.3 55% 34 76.78 0.0
20 15:15 SW 15 16.09 Partly Cloudy SCT085 SCT120 32.3 21.8 54% 36 76.78 0.0
20 14:55 SW 13 16.09 Partly Cloudy SCT055 33 21.4 51% 36 76.78 0.0
20 14:35 SW 13 16.09 Mostly Cloudy BKN049 32.8 21.3 51% 36 76.81 0.0
20 14:15 S 13 16.09 Mostly Cloudy SCT049 BKN060 BKN070 32.7 20.9 50% 36 76.81 0.0
20 13:55 SW 13 16.09 Partly Cloudy SCT047 SCT055 SCT065 32.6 21 50% 36 76.81 0.0
20 13:35 SW 9 G 17 16.09 Partly Cloudy SCT045 SCT075 SCT095 32 20.9 52% 35 76.81 0.0
20 13:15 SW 11 16.09 Partly Cloudy SCT085 SCT095 32.1 20.9 52% 35 76.84 0.0
20 12:55 SW 11 16.09 Partly Cloudy SCT043 SCT050 SCT070 32 21.8 55% 36 76.84 0.0
20 12:35 SW 9 16.09 Fair CLR 31.7 22.3 57% 36 76.86 0.0
20 12:15 S 6 16.09 Fair CLR 31.5 21.3 55% 35 76.86 0.0
20 11:55 SW 9 16.09 Fair CLR 31.2 21.7 57% 35 76.89 0.0
20 11:35 W 7 16.09 Fair CLR 30.8 22.3 61% 35 76.91 0.0
20 11:15 Calm 16.09 Fair CLR 30.6 22.2 61% 34 76.91 0.0
20 10:55 Calm 16.09 Fair CLR 29.7 21.7 62% 33 76.91 0.0
20 10:35 Calm 16.09 Fair CLR 29.2 22.2 66% 32 76.94 0.0
20 10:15 Calm 16.09 Fair CLR 28.8 21.9 66% 32 76.94 0.0
20 09:55 Calm 16.09 Fair CLR 28 21.2 67% 30 76.94 0.0
20 09:35 Calm 16.09 Fair CLR 27.6 21.1 68% 30 76.91 0.0
20 09:15 Calm 16.09 Fair CLR 26.9 20.9 70% 29 76.91 0.0
20 08:55 NE 7 16.09 Fair CLR 26.1 21.1 74% 28 76.91 0.0
20 08:35 NE 7 16.09 Partly Cloudy SCT075 25.1 20.8 77% 26 76.94 0.0
20 08:15 NE 6 16.09 Overcast SCT065 OVC075 24.5 20.9 80% 25 76.94 0.0
20 07:55 N 9 16.09 Overcast SCT065 OVC075 23.8 21 84% 76.94 0.0
20 07:35 N 9 16.09 Overcast OVC075 23.5 20.7 84% 76.91 0.0
20 07:15 NE 9 16.09 Partly Cloudy SCT075 23.2 20.7 86% 76.89 0.0
20 06:55 N 7 16.09 Fair CLR 22.5 20.5 89% 76.89 0.0
20 06:35 N 9 11.27 Fair CLR 21.8 20.2 91% 76.89 0.0
20 06:15 N 7 8.05 Fog/Mist CLR 21.1 20.2 95% 76.89 0.0
20 05:55 NW 6 8.05 Fog/Mist CLR 20.4 19.5 95% 76.86 0.0
20 05:35 NW 7 11.27 Fair CLR 20.1 19.1 94% 76.86 0.0
20 05:15 Calm 11.27 Fair CLR 20.5 19.5 94% 76.84 0.0
20 04:55 Calm 11.27 Fair CLR 20 19 94% 76.81 0.0
20 04:35 Calm 11.27 Fair CLR 20.5 19.5 94% 76.81 0.0
20 04:15 Calm 11.27 Fair CLR 20.6 19.5 93% 76.81 0.0
20 03:55 NE 7 16.09 Fair CLR 21.5 19.5 88% 76.81 0.0
20 03:35 Calm 16.09 Fair CLR 21.9 19.8 88% 76.81 0.0
20 03:15 Calm 16.09 Fair CLR 21.3 19.5 90% 76.78 0.0
20 02:55 Calm 16.09 Fair CLR 22.3 19.8 86% 76.78 0.0
20 02:35 Calm 16.09 Fair CLR 21.5 19.5 88% 76.78 0.0
20 02:15 N 6 16.09 Fair CLR 21.8 19.7 88% 76.78 0.0
20 01:55 Calm 16.09 Partly Cloudy SCT070 21.8 19.7 88% 76.78 0.0
20 01:35 N 7 16.09 Mostly Cloudy BKN070 22.5 20 86% 76.81 0.0
20 01:15 Calm 16.09 Partly Cloudy SCT070 23.1 20 83% 76.81 0.0
20 00:55 Calm 16.09 Fair CLR 23.1 20 83% 76.78 0.0
20 00:35 N 6 16.09 Partly Cloudy SCT065 23.2 20 82% 76.78 0.0
20 00:15 N 9 16.09 Mostly Cloudy BKN065 23.7 20.3 81% 76.81 0.0
19 23:55 N 9 16.09 Partly Cloudy SCT065 22.8 20.4 86% 76.81 0.0
19 23:35 NE 6 16.09 Fair CLR 23 20.2 84% 76.78 0.0
19 23:15 NE 6 16.09 Fair CLR 23.5 20.5 83% 76.78 0.0
19 22:55 N 6 16.09 Fair CLR 23.7 20.6 83% 76.78 0.0
19 22:35 N 6 16.09 Fair CLR 23.4 20.6 84% 76.78 0.0
19 22:15 N 6 16.09 Fair CLR 25 20.6 77% 26 76.76 0.0
19 21:55 N 6 16.09 Fair CLR 25 20.6 77% 26 76.76 0.0
19 21:35 N 7 16.09 Fair CLR 25.1 20.5 76% 26 76.76 0.0
19 21:15 N 7 16.09 Fair CLR 25.6 19.9 71% 27 76.73 0.0
19 20:55 Calm 16.09 Fair CLR 27.8 18 55% 29 76.71 0.0
19 20:35 W 6 16.09 Fair CLR 28.4 18 53% 29 76.71 0.0
19 20:15 Calm 16.09 Fair CLR 29 17.7 51% 30 76.71 0.0
19 19:55 SW 6 16.09 Fair CLR 28.9 19.9 58% 31 76.68 0.0
19 19:35 Calm 16.09 Fair CLR 29.7 19.5 54% 31 76.68 0.0
19 19:15 W 6 16.09 Fair CLR 29.8 19.6 54% 31 76.66 0.0
19 18:55 SW 6 16.09 Fair CLR 30.4 18.8 50% 32 76.66 0.0
19 18:35 SW 9 16.09 Fair CLR 31.1 17.5 44% 32 76.66 0.0
19 18:15 S 13 16.09 Fair CLR 31.5 17.1 42% 32 76.66 0.0
19 17:55 SW 15 16.09 Fair CLR 31.6 16.7 41% 32 76.63 0.0
19 17:35 SW 15 G 26 16.09 Fair CLR 31.9 17.3 42% 32 76.63 0.0
19 17:15 SW 13 16.09 Fair CLR 31.8 17.9 43% 33 76.63 0.0
19 16:55 S 20 16.09 Fair CLR 32 17.7 42% 33 76.63 0.0
19 16:35 SW 22 16.09 Fair CLR 32.1 17.3 41% 33 76.66 0.0
19 16:15 SW 19 16.09 Fair CLR 32 18 43% 33 76.66 0.0
19 15:35 SW 19 G 26 16.09 Fair CLR 32 18.6 45% 33 76.66 0.0
19 15:15 SW 17 G 28 16.09 Fair CLR 32.2 18.4 44% 33 76.66 0.0
19 14:55 SW 19 G 28 16.09 Fair CLR 32.2 18 43% 33 76.68 0.0
19 14:35 SW 13 G 26 16.09 Fair CLR 32 18.6 45% 33 76.68 0.0
19 14:15 SW 15 G 33 16.09 Fair CLR 31.8 18.9 46% 33 76.68 0.0
19 13:55 SW 15 16.09 Partly Cloudy SCT050 SCT060 32 19.8 48% 34 76.68 0.0
19 13:35 SW 15 16.09 Partly Cloudy SCT050 SCT060 31.6 19.7 49% 33 76.68 0.0
19 13:15 SW 15 G 33 16.09 Mostly Cloudy SCT050 BKN060 31.4 18.7 47% 33 76.71 0.0
19 12:55 SW 17 16.09 Partly Cloudy SCT050 SCT070 31 20.3 53% 33 76.71 0.0
19 12:35 S 19 16.09 Partly Cloudy SCT050 31.3 20.4 52% 34 76.71 0.0
19 12:15 S 22 G 37 16.09 Fair CLR 31.1 20 52% 33 76.71 0.0
19 11:55 SW 26 G 35 16.09 Fair CLR 30.6 19.3 51% 32 76.71 0.0
19 11:35 S 24 G 35 16.09 Fair CLR 30.4 18.9 50% 32 76.68 0.0
19 11:15 S 26 G 35 16.09 Fair CLR 30.1 19.5 53% 32 76.68 0.0
19 10:55 SW 17 G 26 16.09 Fair CLR 29.7 20.8 59% 32 76.68 0.0
19 10:35 S 24 16.09 Fair CLR 29.4 20.6 59% 32 76.68 0.0
19 10:15 SW 17 16.09 Fair CLR 29.1 20.5 60% 31 76.68 0.0
19 09:55 S 15 16.09 Fair CLR 28.8 21.1 63% 31 76.68 0.0
19 09:35 SW 15 16.09 Fair CLR 28.2 21.3 66% 31 76.68 0.0
19 09:15 S 15 16.09 Fair CLR 27.8 21.4 68% 30 76.71 0.0
19 08:55 S 13 16.09 Fair CLR 27.2 21.2 70% 29 76.71 0.0
19 08:35 SW 11 16.09 Fair CLR 26.4 21.6 75% 28 76.71 0.0
Date Time (cdt) Wind (kph) Vis. (km) Weather Sky Cond. Air Dwpt Max. Min. Relative Humidity Wind Chill (°C) Heat Index (°C) altimeter (cm) sea level (mb) 1 hr 3 hr 6 hr
6 hour
Temperature (ºC) Pressure Precipitation (cm)